Terminal Aerodrome Forecast
Issued by NWS

Home | Current Version | Previous Version | Text Only | Print | Product List | Glossary Off
Versions: 1 2 3 4 5 6 7 8 9 10 11 12 13 14 15 16 17

000
FTUS43 KICT 191139
TAFSLN
TAF
KSLN 191139Z 1912/2012 16010KT 5SM BR SCT006 BKN120
      TEMPO 1912/1914 2SM BR BKN006
     FM191400 17012KT 1SM BR BKN003
      TEMPO 1914/1916 1/2SM FG
     FM191800 17012KT P6SM BKN012
     FM192000 16015G23KT P6SM BKN050
     FM200300 16013KT P6SM VCSH OVC015
     FM200600 17013KT P6SM OVC003=

USA.gov is the U.S. government's official web portal to all federal, state and local government web resources and services.